RJCC/CTS METAR and TAF weather

Enter ICAO airport designator
Station Type Date Time Source
RJCC METAR 2020/09/23 02:00 UTC NOAA

RJCC 230200Z 17007KT 120V200 9999 FEW025 BKN120 21/14 Q1021


Station Type Date Time Source
RJCC Decoded METAR 2020/09/23 02:00 UTC NOAA

Chitose Ab, Japan (RJCC) 42-48N 141-40E 30M
Sep 22, 2020 - 10:00 PM EDT / 2020.09.23 0200 UTC
Wind: from the S (170 degrees) at 8 MPH (7 KT) (direction variable):0
Visibility: greater than 7 mile(s):0
Sky conditions: mostly cloudy
Temperature: 69 F (21 C)
Dew Point: 57 F (14 C)
Relative Humidity: 64%
Pressure (altimeter): 30.15 in. Hg (1021 hPa)
ob: RJCC 230200Z 17007KT 120V200 9999 FEW025 BKN120 21/14 Q1021
cycle: 2

Station Type Date Time Source
RJCC TAF 2020/09/22 18:30 UTC NOAA

TAF RJCC 221708Z 2218/2400 03005KT 9999 FEW015
TEMPO 2218/2222 0700 FG VV001
BECMG 2221/2223 18004KT
BECMG 2315/2318 08005KT

Example: see airport list